Time;durP1;ratioP1;P1;durP2;ratioP2;P2;SDS_P1;SDS_P2;PMS_P1;PMS_P2;Temp;Humidity;BMP_temperature;BMP_pressure;BME280_temperature;BME280_humidity;BME280_pressure;Samples;Min_cycle;Max_cycle;Signal;HPM_P1;HPM_P2
2023/12/12 08:19:51;;;;;;;1.47;1.17;;;;;;;7.28;99.74;150502.31;13187660;21;1869950;-82
2023/12/12 08:24:54;;;;;;;2.22;1.00;;;;;;;7.43;98.73;150539.63;13139922;22;20007;-80
2023/12/12 08:29:56;;;;;;;3.63;1.30;;;;;;;7.34;99.91;150516.44;13121020;22;20015;-83
2023/12/12 08:34:58;;;;;;;4.68;0.93;;;;;;;7.56;98.17;150573.13;13130725;22;20010;-82
2023/12/12 08:40:00;;;;;;;1.95;1.20;;;;;;;7.53;98.21;150565.44;13127613;22;20471;-83
2023/12/12 08:45:02;;;;;;;1.52;1.05;;;;;;;7.48;98.01;150552.56;13130520;22;20037;-83
2023/12/12 08:50:05;;;;;;;2.35;0.90;;;;;;;7.56;97.51;150573.13;13131450;22;20474;-83
2023/12/12 08:55:10;;;;;;;1.80;0.88;;;;;;;7.69;96.29;150604.06;13172496;22;20045;-84
2023/12/12 09:00:13;;;;;;;1.45;0.80;;;;;;;7.65;95.80;150593.75;13156524;22;20025;-83
2023/12/12 09:05:15;;;;;;;1.65;0.77;;;;;;;7.72;95.66;150613.09;13129549;22;20057;-82
2023/12/12 09:10:17;;;;;;;2.22;0.95;;;;;;;7.69;96.54;150604.06;13132633;22;20019;-82
2023/12/12 09:15:19;;;;;;;1.55;1.00;;;;;;;7.65;96.33;150595.03;13129089;22;20056;-81
2023/12/12 09:20:21;;;;;;;2.63;0.85;;;;;;;7.68;97.25;150601.50;13115824;22;20463;-81
2023/12/12 09:25:23;;;;;;;7.20;4.00;;;;;;;7.67;96.75;150598.94;13120909;22;20343;-81
2023/12/12 09:30:25;;;;;;;4.88;3.03;;;;;;;7.69;95.81;150605.34;13118642;22;20069;-81
2023/12/12 09:35:26;;;;;;;2.85;1.23;;;;;;;7.69;96.70;150604.06;13143662;22;20056;-81
2023/12/12 09:40:28;;;;;;;9.43;2.72;;;;;;;7.80;96.14;150633.72;13141212;22;20078;-81
2023/12/12 09:45:31;;;;;;;4.10;1.85;;;;;;;7.77;98.53;150624.69;13112550;22;20011;-81
2023/12/12 09:50:34;;;;;;;3.85;2.50;;;;;;;7.41;100.00;150533.22;13110936;22;20023;-79
2023/12/12 09:55:36;;;;;;;1.48;1.00;;;;;;;7.47;100.00;150549.94;13113157;22;20011;-80
2023/12/12 10:00:38;;;;;;;2.13;1.00;;;;;;;7.48;100.00;150552.56;13120947;22;20015;-81
2023/12/12 10:05:47;;;;;;;4.00;1.08;;;;;;;7.55;100.00;150570.56;13111253;22;20068;-80
2023/12/12 10:10:52;;;;;;;7.72;1.52;;;;;;;7.77;100.00;150625.97;13130829;22;20039;-80
2023/12/12 10:15:54;;;;;;;6.20;1.75;;;;;;;8.05;100.00;150696.81;13152900;22;20015;-80
2023/12/12 10:20:56;;;;;;;2.15;0.93;;;;;;;8.01;99.93;150686.53;13145199;22;20015;-81
2023/12/12 10:25:59;;;;;;;2.58;0.98;;;;;;;8.22;97.24;150738.06;13139466;22;20015;-81
2023/12/12 10:31:01;;;;;;;3.47;0.80;;;;;;;8.18;95.78;150727.75;13135152;22;20025;-81
2023/12/12 10:36:03;;;;;;;3.85;1.05;;;;;;;8.15;95.48;150720.06;13104921;22;20015;-81
2023/12/12 10:41:16;;;;;;;1.98;0.70;;;;;;;8.19;94.29;150730.31;13128544;22;20351;-81
2023/12/12 10:46:19;;;;;;;1.38;0.63;;;;;;;8.22;96.70;150739.34;13129165;22;20014;-81
2023/12/12 10:51:23;;;;;;;2.47;0.73;;;;;;;8.46;93.06;150798.72;13102740;22;20022;-81
2023/12/12 10:56:28;;;;;;;2.63;0.82;;;;;;;8.47;89.27;150802.56;13134109;22;20382;-81
2023/12/12 11:01:31;;;;;;;4.43;0.88;;;;;;;8.48;88.22;150803.84;13106535;22;20053;-82
2023/12/12 11:06:33;;;;;;;5.65;1.13;;;;;;;8.96;83.10;150926.34;13131543;22;20436;-81
2023/12/12 11:11:40;;;;;;;2.65;0.65;;;;;;;10.98;75.16;151437.47;13137235;22;20325;-81
2023/12/12 11:16:43;;;;;;;1.67;0.77;;;;;;;11.89;67.04;151666.19;13140061;22;20019;-81
2023/12/12 11:21:48;;;;;;;1.52;0.65;;;;;;;12.12;63.02;151725.63;13139880;22;20089;-82
2023/12/12 11:26:52;;;;;;;2.30;0.77;;;;;;;12.79;60.27;151896.34;13112076;22;20025;-83
2023/12/12 11:32:03;;;;;;;2.20;0.80;;;;;;;13.11;59.11;151977.84;13088112;22;20098;-82
2023/12/12 11:37:05;;;;;;;1.92;0.60;;;;;;;13.34;60.04;152036.09;13116841;22;20019;-81
2023/12/12 11:42:16;;;;;;;2.13;0.65;;;;;;;13.95;57.65;152188.81;13111360;22;20059;-81
2023/12/12 11:47:25;;;;;;;2.55;1.02;;;;;;;14.35;56.34;152291.09;13139029;22;20022;-81
2023/12/12 11:52:39;;;;;;;2.80;0.70;;;;;;;13.33;58.28;152033.50;13138200;22;20011;-81
2023/12/12 11:57:41;;;;;;;2.97;1.55;;;;;;;12.88;59.30;151919.63;13143478;22;20010;-81
2023/12/12 12:02:43;;;;;;;2.78;1.10;;;;;;;12.48;59.40;151817.44;13123368;22;20046;-78
2023/12/12 12:07:45;;;;;;;2.10;0.90;;;;;;;11.98;61.28;151689.47;13145995;22;20018;-81
2023/12/12 12:12:55;;;;;;;1.75;0.68;;;;;;;11.40;59.70;151542.09;13112451;22;20019;-81
2023/12/12 12:17:57;;;;;;;3.65;1.70;;;;;;;10.41;63.26;151291.56;13112929;22;20011;-80
2023/12/12 12:22:59;;;;;;;1.20;0.52;;;;;;;9.89;65.42;151159.84;13114409;22;20034;-82
2023/12/12 12:28:01;;;;;;;1.77;0.70;;;;;;;9.62;68.68;151091.47;13087899;22;20080;-81
2023/12/12 12:33:09;;;;;;;2.65;0.98;;;;;;;9.44;68.89;151046.31;13115119;22;20044;-81
2023/12/12 12:38:25;;;;;;;3.78;1.20;;;;;;;9.24;70.19;150997.25;13088212;22;20022;-81
2023/12/12 12:43:27;;;;;;;1.08;0.98;;;;;;;9.22;69.96;150992.13;13140297;22;20014;-80
2023/12/12 12:48:29;;;;;;;2.83;0.88;;;;;;;8.95;75.10;150923.78;13111788;22;20019;-81
2023/12/12 12:53:32;;;;;;;2.40;0.93;;;;;;;9.09;72.31;150958.59;13112746;22;20014;-81
2023/12/12 12:58:33;;;;;;;2.22;0.60;;;;;;;9.01;74.34;150937.94;13115005;22;20010;-81
2023/12/12 13:03:35;;;;;;;2.80;0.77;;;;;;;9.05;74.25;150948.28;13113026;22;20022;-81
2023/12/12 13:08:38;;;;;;;2.70;0.88;;;;;;;8.96;75.49;150926.34;13088201;22;20094;-81
2023/12/12 13:13:40;;;;;;;3.60;1.10;;;;;;;9.16;72.08;150976.63;13088268;22;20022;-81
2023/12/12 13:18:42;;;;;;;2.83;1.10;;;;;;;9.24;73.03;150997.25;13113528;22;20018;-81
2023/12/12 13:23:44;;;;;;;2.97;0.90;;;;;;;9.16;73.41;150976.63;13092030;22;20019;-80
2023/12/12 13:28:51;;;;;;;3.67;1.10;;;;;;;9.03;75.26;150943.09;13132157;22;20317;-80
2023/12/12 13:33:53;;;;;;;4.72;0.85;;;;;;;8.95;75.05;150922.50;13154248;22;20015;-80
2023/12/12 13:38:55;;;;;;;1.65;0.73;;;;;;;9.07;74.45;150954.75;13160496;22;20015;-81
2023/12/12 13:43:57;;;;;;;2.28;0.90;;;;;;;8.96;75.61;150925.06;13090842;22;20030;-79
2023/12/12 13:48:59;;;;;;;1.98;0.77;;;;;;;8.86;76.74;150899.28;13122457;22;20017;-80
2023/12/12 13:54:00;;;;;;;2.53;1.00;;;;;;;8.83;76.73;150892.81;13113288;22;20030;-82
2023/12/12 13:59:02;;;;;;;2.75;0.70;;;;;;;8.62;77.34;150839.94;13114212;22;20054;-77
2023/12/12 14:04:08;;;;;;;3.05;0.77;;;;;;;8.51;77.66;150812.88;13127776;22;20018;-78
2023/12/12 14:09:11;;;;;;;2.25;0.80;;;;;;;8.43;77.64;150792.25;13122409;22;20018;-79
2023/12/12 14:14:13;;;;;;;3.20;1.00;;;;;;;8.29;77.87;150756.13;13126215;22;20022;-79
2023/12/12 14:19:14;;;;;;;2.40;0.73;;;;;;;8.18;78.72;150727.75;13152655;22;20010;-78
2023/12/12 14:24:16;;;;;;;1.95;0.90;;;;;;;7.97;82.35;150674.91;13127648;22;20042;-79
2023/12/12 14:29:18;;;;;;;3.35;0.90;;;;;;;7.82;83.15;150638.84;13117853;22;20018;-80
2023/12/12 14:34:20;;;;;;;2.65;0.93;;;;;;;7.76;84.36;150623.41;13139685;22;20470;-81
2023/12/12 14:39:22;;;;;;;2.42;1.13;;;;;;;7.77;83.91;150624.69;13111594;22;20018;-80
2023/12/12 14:44:28;;;;;;;2.13;1.30;;;;;;;7.66;84.35;150597.66;13139206;22;20467;-80
2023/12/12 14:49:33;;;;;;;2.85;1.15;;;;;;;7.63;84.15;150589.91;13122279;22;20528;-81
2023/12/12 14:54:36;;;;;;;4.00;1.35;;;;;;;7.49;84.49;150555.13;13142080;22;20045;-80
2023/12/12 14:59:38;;;;;;;3.63;1.25;;;;;;;7.36;85.00;150521.63;13119633;22;20064;-80
2023/12/12 15:04:40;;;;;;;3.33;1.33;;;;;;;7.26;85.21;150495.84;13158158;22;20022;-80
2023/12/12 15:09:42;;;;;;;2.25;1.10;;;;;;;7.17;85.60;150472.66;13143332;22;20034;-81
2023/12/12 15:14:44;;;;;;;3.70;1.50;;;;;;;7.06;86.81;150446.94;13141490;22;20072;-81
2023/12/12 15:19:46;;;;;;;9.35;5.88;;;;;;;7.02;87.38;150436.63;13115464;22;20076;-82
2023/12/12 15:24:47;;;;;;;70.15;22.88;;;;;;;6.91;88.73;150407.03;13146808;22;20059;-83
2023/12/12 15:29:53;;;;;;;24.10;12.55;;;;;;;6.85;90.15;150391.56;13114838;22;20440;-81
2023/12/12 15:34:55;;;;;;;23.48;13.00;;;;;;;6.79;90.43;150377.41;13116017;22;20019;-81
2023/12/12 15:40:00;;;;;;;9.65;5.40;;;;;;;6.72;90.74;150359.38;13112506;22;20022;-80
2023/12/12 15:45:03;;;;;;;8.40;4.40;;;;;;;6.65;91.19;150341.38;13114729;22;20091;-81
2023/12/12 15:50:06;;;;;;;9.27;7.18;;;;;;;6.57;91.34;150323.34;13097942;22;20044;-79
2023/12/12 15:55:08;;;;;;;4.03;3.63;;;;;;;6.55;91.20;150316.88;13155520;22;20011;-79
2023/12/12 16:00:13;;;;;;;4.30;2.63;;;;;;;6.57;91.21;150323.34;13146704;22;20015;-81
2023/12/12 16:05:15;;;;;;;6.10;2.58;;;;;;;6.47;92.14;150297.59;13111732;22;20045;-81
2023/12/12 16:10:17;;;;;;;4.10;1.73;;;;;;;6.50;92.58;150305.31;13116166;22;20071;-80
2023/12/12 16:15:19;;;;;;;2.50;1.55;;;;;;;6.46;92.35;150295.03;13120267;22;20019;-80
2023/12/12 16:20:21;;;;;;;5.80;2.47;;;;;;;6.44;91.28;150289.88;13147851;22;20026;-81
2023/12/12 16:25:23;;;;;;;5.22;2.28;;;;;;;6.46;89.97;150295.03;13137730;22;20350;-80
2023/12/12 16:30:25;;;;;;;7.75;2.65;;;;;;;6.47;89.37;150296.31;13089357;22;20014;-81
2023/12/12 16:35:32;;;;;;;9.23;5.03;;;;;;;6.53;88.77;150313.03;13115045;22;20105;-81
2023/12/12 16:40:39;;;;;;;6.90;2.88;;;;;;;6.57;88.44;150322.06;13142365;22;20021;-81
2023/12/12 16:45:42;;;;;;;3.80;2.30;;;;;;;6.61;88.03;150331.06;13116032;22;20019;-80
2023/12/12 16:50:45;;;;;;;4.30;1.90;;;;;;;6.52;88.00;150310.47;13114729;22;20015;-80
2023/12/12 16:55:46;;;;;;;4.40;1.63;;;;;;;6.54;87.20;150315.59;13141076;22;20063;-79
2023/12/12 17:00:49;;;;;;;4.00;2.00;;;;;;;6.47;87.63;150296.31;13146971;22;20038;-80
2023/12/12 17:05:51;;;;;;;3.03;1.58;;;;;;;6.36;87.81;150269.28;13124132;22;20021;-82
2023/12/12 17:10:53;;;;;;;6.88;1.90;;;;;;;6.21;89.14;150230.69;13123113;22;20070;-81
2023/12/12 17:15:57;;;;;;;4.35;1.67;;;;;;;6.09;89.75;150201.09;13118465;22;20015;-82
2023/12/12 17:20:59;;;;;;;2.45;1.73;;;;;;;6.06;90.02;150193.34;13115907;22;20393;-81
2023/12/12 17:26:01;;;;;;;3.70;1.70;;;;;;;6.24;90.09;150239.72;13091020;22;20015;-83
2023/12/12 17:31:05;;;;;;;5.70;2.20;;;;;;;6.16;90.75;150217.81;13114723;22;20025;-82
2023/12/12 17:36:08;;;;;;;5.15;1.98;;;;;;;6.11;92.08;150204.91;13113649;22;20447;-81
2023/12/12 17:41:16;;;;;;;4.30;2.13;;;;;;;6.10;92.51;150202.34;13116594;22;20026;-81
2023/12/12 17:46:18;;;;;;;6.50;2.25;;;;;;;6.14;92.85;150212.66;13150443;22;20023;-80
2023/12/12 17:51:20;;;;;;;7.30;2.30;;;;;;;6.48;91.28;150300.19;13115625;22;20070;-81
2023/12/12 17:56:23;;;;;;;8.43;2.40;;;;;;;6.50;91.03;150305.31;13121897;22;20022;-82
2023/12/12 18:01:25;;;;;;;3.85;2.30;;;;;;;6.74;88.99;150364.53;13121762;22;20019;-82
2023/12/12 18:06:31;;;;;;;4.70;2.17;;;;;;;6.64;90.02;150340.09;13115843;22;20064;-81
2023/12/12 18:11:33;;;;;;;3.97;2.13;;;;;;;6.46;91.21;150295.03;13091971;22;20048;-79
2023/12/12 18:16:36;;;;;;;7.72;2.15;;;;;;;6.56;91.25;150320.78;13137720;22;20029;-81
2023/12/12 18:21:38;;;;;;;2.85;2.08;;;;;;;6.67;90.10;150347.78;13149331;22;20018;-79
2023/12/12 18:26:41;;;;;;;4.10;1.90;;;;;;;6.74;89.80;150364.53;13120262;22;20037;-77
2023/12/12 18:31:43;;;;;;;7.38;1.85;;;;;;;6.70;89.23;150354.25;13118999;22;20025;-80
2023/12/12 18:36:45;;;;;;;4.38;1.90;;;;;;;6.73;88.64;150363.25;13120985;22;20007;-79
2023/12/12 18:41:48;;;;;;;5.10;3.17;;;;;;;6.88;88.26;150400.59;13119499;22;20041;-80
2023/12/12 18:46:50;;;;;;;4.50;2.25;;;;;;;6.70;88.88;150354.25;13122764;22;20018;-80
2023/12/12 18:51:54;;;;;;;5.65;2.35;;;;;;;6.56;90.16;150320.78;13123053;22;20467;-81
2023/12/12 18:56:57;;;;;;;5.80;2.55;;;;;;;6.57;90.92;150323.34;13122009;22;20011;-81
2023/12/12 19:01:59;;;;;;;4.25;3.75;;;;;;;6.82;88.46;150386.44;13106238;22;20019;-81
2023/12/12 19:07:01;;;;;;;4.40;4.00;;;;;;;6.53;91.34;150311.75;13151164;22;20015;-83
2023/12/12 19:12:03;;;;;;;5.07;2.65;;;;;;;6.45;92.54;150292.44;13136556;22;20448;-86
2023/12/12 19:17:05;;;;;;;6.13;3.70;;;;;;;6.32;93.33;150260.25;13154302;22;20469;-83
2023/12/12 19:22:07;;;;;;;5.32;4.50;;;;;;;6.22;95.19;150234.53;13102461;22;20006;-84
2023/12/12 19:27:10;;;;;;;8.07;3.03;;;;;;;6.30;94.83;150255.13;13126838;22;20078;-83
2023/12/12 19:32:12;;;;;;;2.85;2.28;;;;;;;6.34;95.16;150262.88;13134716;22;20022;-83
2023/12/12 19:37:13;;;;;;;5.03;3.25;;;;;;;6.54;94.52;150314.31;13123124;22;20031;-86
2023/12/12 19:42:16;;;;;;;4.43;3.10;;;;;;;6.47;94.60;150296.31;13123709;22;20094;-84
2023/12/12 19:47:17;;;;;;;5.30;3.58;;;;;;;6.48;94.69;150298.91;13149680;22;19999;-83
2023/12/12 19:52:19;;;;;;;6.53;3.85;;;;;;;6.35;95.87;150265.44;13148011;22;20003;-83
2023/12/12 19:57:21;;;;;;;5.85;4.05;;;;;;;6.22;97.63;150234.53;13141016;22;20070;-82
2023/12/12 20:02:24;;;;;;;5.07;3.88;;;;;;;6.36;97.62;150269.28;13113006;22;20023;-80
2023/12/12 20:07:26;;;;;;;6.07;3.83;;;;;;;6.51;97.01;150307.91;13168371;22;20002;-81
2023/12/12 20:12:30;;;;;;;3.42;2.45;;;;;;;6.63;96.41;150336.19;13141583;22;20022;-81
2023/12/12 20:17:32;;;;;;;4.68;2.70;;;;;;;6.50;96.98;150305.31;13130490;22;20018;-83
2023/12/12 20:22:34;;;;;;;4.22;2.92;;;;;;;6.41;97.87;150282.13;13155247;22;20015;-81
2023/12/12 20:27:44;;;;;;;6.00;2.97;;;;;;;6.47;97.86;150296.31;13111868;22;20009;-84
2023/12/12 20:32:46;;;;;;;5.47;3.63;;;;;;;6.99;95.79;150427.59;13120808;22;20098;-84
2023/12/12 20:37:48;;;;;;;5.75;3.33;;;;;;;6.82;96.52;150386.44;13148671;22;20026;-86
2023/12/12 20:42:50;;;;;;;4.25;2.90;;;;;;;6.66;97.64;150343.94;13145217;22;20011;-83
2023/12/12 20:47:52;;;;;;;5.25;2.55;;;;;;;6.43;99.49;150286.03;13123108;22;20041;-87
2023/12/12 20:52:54;;;;;;;4.13;2.58;;;;;;;6.53;99.89;150313.03;13123613;22;20041;-87
2023/12/12 20:57:56;;;;;;;7.90;3.50;;;;;;;6.56;98.29;150320.78;13149231;22;20061;-88
2023/12/12 21:02:58;;;;;;;6.13;3.00;;;;;;;6.53;98.44;150311.75;13175521;22;19998;-86
2023/12/12 21:08:00;;;;;;;6.65;2.45;;;;;;;6.52;98.58;150309.19;13149080;22;20010;-86
2023/12/12 21:13:02;;;;;;;3.38;1.90;;;;;;;6.45;99.42;150292.44;13059642;22;20015;-86
2023/12/12 21:18:05;;;;;;;5.97;2.10;;;;;;;6.48;99.07;150298.91;13035341;22;20016;-83
2023/12/12 21:23:08;;;;;;;4.07;2.20;;;;;;;6.67;97.97;150346.50;13062357;22;20026;-81
2023/12/12 21:28:10;;;;;;;4.50;2.10;;;;;;;6.59;98.10;150327.19;13071334;22;20015;-81
2023/12/12 21:33:11;;;;;;;5.22;2.08;;;;;;;6.62;97.75;150333.63;13051117;22;20027;-81
2023/12/12 21:38:14;;;;;;;4.50;2.42;;;;;;;6.58;99.11;150324.63;13073953;22;20012;-82
2023/12/12 21:43:15;;;;;;;7.72;2.90;;;;;;;6.56;99.25;150320.78;13078503;22;20021;-80
2023/12/12 21:48:17;;;;;;;7.40;3.25;;;;;;;6.54;98.68;150315.59;13042668;22;20015;-80
2023/12/12 21:53:19;;;;;;;5.13;2.88;;;;;;;6.55;98.73;150318.22;13082934;22;20015;-81
2023/12/12 21:58:21;;;;;;;4.70;1.75;;;;;;;6.61;99.22;150332.34;13047025;22;20015;-82
2023/12/12 22:03:23;;;;;;;4.82;2.10;;;;;;;6.57;99.60;150322.06;13040548;22;20019;-83
2023/12/12 22:08:25;;;;;;;6.47;2.05;;;;;;;6.57;100.00;150322.06;13067243;22;20019;-82
2023/12/12 22:13:27;;;;;;;3.58;2.33;;;;;;;6.79;98.96;150378.69;13057627;22;20019;-85
2023/12/12 22:18:29;;;;;;;5.78;2.22;;;;;;;6.49;99.93;150301.47;13055420;22;20015;-83
2023/12/12 22:23:31;;;;;;;6.10;2.45;;;;;;;6.28;100.00;150249.97;13062158;22;20102;-81
2023/12/12 22:28:32;;;;;;;4.78;2.00;;;;;;;6.49;100.00;150302.75;13037262;22;20480;-83
2023/12/12 22:33:34;;;;;;;4.32;2.20;;;;;;;6.43;100.00;150286.03;13038468;22;20064;-83
2023/12/12 22:38:39;;;;;;;6.90;2.45;;;;;;;6.73;99.99;150363.25;13038937;22;20015;-84
2023/12/12 22:43:41;;;;;;;2.97;1.80;;;;;;;6.80;96.90;150379.97;13064353;22;20019;-81
2023/12/12 22:48:43;;;;;;;5.35;1.90;;;;;;;6.72;96.61;150360.66;13036357;22;20026;-82
2023/12/12 22:53:45;;;;;;;8.02;2.17;;;;;;;6.43;98.51;150287.31;13060612;22;20015;-82
2023/12/12 22:58:49;;;;;;;5.82;1.95;;;;;;;6.22;100.00;150234.53;13037876;22;20015;-83
2023/12/12 23:03:52;;;;;;;5.03;1.90;;;;;;;6.27;100.00;150247.41;13064543;22;20019;-83
2023/12/12 23:08:54;;;;;;;5.97;1.92;;;;;;;6.54;99.14;150315.59;13037098;22;20471;-82
2023/12/12 23:13:57;;;;;;;6.25;2.25;;;;;;;6.58;99.23;150324.63;13065210;22;20074;-82
2023/12/12 23:18:59;;;;;;;8.70;2.72;;;;;;;6.52;99.40;150309.19;13061595;22;20017;-81
2023/12/12 23:24:01;;;;;;;4.63;2.03;;;;;;;6.53;99.80;150313.03;13060000;22;20437;-81
2023/12/12 23:29:02;;;;;;;5.93;2.42;;;;;;;6.81;97.96;150382.53;13057004;22;20029;-81
2023/12/12 23:34:04;;;;;;;6.72;1.85;;;;;;;6.70;98.01;150355.53;13054933;22;20322;-83
2023/12/12 23:39:06;;;;;;;7.82;2.20;;;;;;;6.53;99.61;150311.75;13056321;22;20018;-80
2023/12/12 23:44:08;;;;;;;5.88;2.42;;;;;;;6.59;100.00;150327.19;13083828;22;20026;-79
2023/12/12 23:49:14;;;;;;;4.82;2.05;;;;;;;6.42;100.00;150283.41;13057621;22;20019;-82
2023/12/12 23:54:16;;;;;;;7.13;2.60;;;;;;;6.30;100.00;150253.84;13059255;22;20019;-82
2023/12/12 23:59:17;;;;;;;6.55;3.03;;;;;;;6.17;100.00;150221.69;13031633;22;20015;-82
